Westwind — PG2085 — position and weather

sailwx.info

Track history (hours):
 
Tides and Currents Weather Stations Pressure Air Temp Water Temp Dewpoint Dewpoint Depression Visibility Wind Speed Wind Dir Waves Ship Positions

Westwind

Last reported at 2018-May-06 14:00 UTC. Time now 2018-May-24 23:25 UTC.
Position N 40°42' W 074°01'.
Warning: this ship's position is 18 days out of date.

Length 13 m.

Type: Pleasure craft. MMSI: 244740574.

Date/timePositionNaut miles runAvg speedWind from/ knotsBaromVisibWave heightAir tempDewpointWater temp
2018-May-06 14:00N 40°42' W 074°01'1 1.9
2018-May-06 13:30N 40°42' W 074°02'0 0.7
2018-May-06 12:47N 40°43' W 074°03'0 0.0
2018-May-06 12:29N 40°43' W 074°03'0 0.0
2018-May-06 11:59N 40°43' W 074°03'0 0.0
2018-May-06 11:29N 40°43' W 074°03'0 0.0
2018-May-06 10:56N 40°43' W 074°03'0 0.0
2018-May-06 10:29N 40°43' W 074°03'0 0.0
2018-May-06 09:56N 40°43' W 074°03'0 0.0
2018-May-06 09:20N 40°43' W 074°03'0 0.0
2018-May-06 08:59N 40°43' W 074°03'0 0.0
2018-May-06 08:29N 40°43' W 074°03'0 0.0
2018-May-06 07:53N 40°43' W 074°03'0 0.0
2018-May-06 07:23N 40°43' W 074°03'0 0.0
2018-May-06 05:50N 40°43' W 074°03'0 0.0
2018-May-06 05:26N 40°43' W 074°03'0 0.0
2018-May-06 04:59N 40°43' W 074°03'0 0.0
2018-May-06 04:11N 40°43' W 074°03'0 0.0
2018-May-06 03:53N 40°43' W 074°03'0 0.0
2018-May-06 03:20N 40°43' W 074°03'0 0.0
2018-May-06 02:56N 40°43' W 074°03'0 0.0
2018-May-06 02:20N 40°43' W 074°03'0 0.0
2018-May-06 01:59N 40°43' W 074°03'0 0.0
2018-May-06 01:29N 40°43' W 074°03'0 0.0
2018-May-06 00:59N 40°43' W 074°03'0 0.0
2018-May-06 00:23N 40°43' W 074°03'0 0.0
2018-May-05 23:59N 40°43' W 074°03'0 0.0
2018-May-05 23:29N 40°43' W 074°03'0 0.0
2018-May-05 22:59N 40°43' W 074°03'0 0.0
2018-May-05 22:29N 40°43' W 074°03'0 0.0
2018-May-05 21:47N 40°43' W 074°03'0 0.0
2018-May-05 21:29N 40°43' W 074°03'0 0.0
2018-May-05 20:59N 40°43' W 074°03'0 0.0
2018-May-05 20:29N 40°43' W 074°03'0 0.0
2018-May-05 19:56N 40°43' W 074°03'0 0.0
2018-May-05 19:29N 40°43' W 074°03'0 0.1
2018-May-05 19:00N 40°43' W 074°03'  
2018-Apr-28 13:59N 40°43' W 074°01'1 2.4
2018-Apr-28 13:23N 40°42' W 074°02'1 1.4
2018-Apr-28 12:48N 40°43' W 074°02'1 0.0
2018-Apr-27 23:32N 40°43' W 074°02'0 6.1
2018-Apr-27 23:30N 40°43' W 074°02'55 5.2
2018-Apr-27 13:00N 39°48' W 074°03'3 5.7
2018-Apr-27 12:26N 39°45' W 074°04'3 5.5
2018-Apr-27 11:56N 39°42' W 074°05'3 5.6
2018-Apr-27 11:29N 39°39' W 074°06'3 5.0
2018-Apr-27 10:57N 39°37' W 074°07'60 3.7
2018-Apr-26 18:53N 39°07' W 075°14'3 7.4
2018-Apr-26 18:26N 39°10' W 075°16'2 4.0
2018-Apr-26 18:00N 39°12' W 075°17'3 5.8
2018-Apr-26 17:30N 39°14' W 075°20'2 5.0
2018-Apr-26 17:01N 39°16' W 075°22'4 6.9
2018-Apr-26 16:30N 39°19' W 075°24'3 6.4
2018-Apr-26 15:58N 39°22' W 075°27'3 7.5
2018-Apr-26 15:30N 39°24' W 075°30'3 5.7
2018-Apr-26 15:00N 39°26' W 075°32'2 4.6
2018-Apr-26 14:30N 39°28' W 075°34'  
Track history (hours):
 
Tides and Currents Weather Stations Pressure Air Temp Water Temp Dewpoint Dewpoint Depression Visibility Wind Speed Wind Dir Waves Ship Positions

Westwind

Last reported at 2018-May-06 14:00 UTC. Time now 2018-May-24 23:25 UTC.
Position N 40°42' W 074°01'.
Warning: this ship's position is 18 days out of date.

Length 13 m.

Type: Pleasure craft. MMSI: 244740574.

Date/timePositionNaut miles runAvg speedWind from/ knotsBaromVisibWave heightAir tempDewpointWater temp
2018-May-06 14:00N 40°42' W 074°01'1 1.9
2018-May-06 13:30N 40°42' W 074°02'0 0.7
2018-May-06 12:47N 40°43' W 074°03'0 0.0
2018-May-06 12:29N 40°43' W 074°03'0 0.0
2018-May-06 11:59N 40°43' W 074°03'0 0.0
2018-May-06 11:29N 40°43' W 074°03'0 0.0
2018-May-06 10:56N 40°43' W 074°03'0 0.0
2018-May-06 10:29N 40°43' W 074°03'0 0.0
2018-May-06 09:56N 40°43' W 074°03'0 0.0
2018-May-06 09:20N 40°43' W 074°03'0 0.0
2018-May-06 08:59N 40°43' W 074°03'0 0.0
2018-May-06 08:29N 40°43' W 074°03'0 0.0
2018-May-06 07:53N 40°43' W 074°03'0 0.0
2018-May-06 07:23N 40°43' W 074°03'0 0.0
2018-May-06 05:50N 40°43' W 074°03'0 0.0
2018-May-06 05:26N 40°43' W 074°03'0 0.0
2018-May-06 04:59N 40°43' W 074°03'0 0.0
2018-May-06 04:11N 40°43' W 074°03'0 0.0
2018-May-06 03:53N 40°43' W 074°03'0 0.0
2018-May-06 03:20N 40°43' W 074°03'0 0.0
2018-May-06 02:56N 40°43' W 074°03'0 0.0
2018-May-06 02:20N 40°43' W 074°03'0 0.0
2018-May-06 01:59N 40°43' W 074°03'0 0.0
2018-May-06 01:29N 40°43' W 074°03'0 0.0
2018-May-06 00:59N 40°43' W 074°03'0 0.0
2018-May-06 00:23N 40°43' W 074°03'0 0.0
2018-May-05 23:59N 40°43' W 074°03'0 0.0
2018-May-05 23:29N 40°43' W 074°03'0 0.0
2018-May-05 22:59N 40°43' W 074°03'0 0.0
2018-May-05 22:29N 40°43' W 074°03'0 0.0
2018-May-05 21:47N 40°43' W 074°03'0 0.0
2018-May-05 21:29N 40°43' W 074°03'0 0.0
2018-May-05 20:59N 40°43' W 074°03'0 0.0
2018-May-05 20:29N 40°43' W 074°03'0 0.0
2018-May-05 19:56N 40°43' W 074°03'0 0.0
2018-May-05 19:29N 40°43' W 074°03'0 0.1
2018-May-05 19:00N 40°43' W 074°03'  
2018-Apr-28 13:59N 40°43' W 074°01'1 2.4
2018-Apr-28 13:23N 40°42' W 074°02'1 1.4
2018-Apr-28 12:48N 40°43' W 074°02'1 0.0
2018-Apr-27 23:32N 40°43' W 074°02'0 6.1
2018-Apr-27 23:30N 40°43' W 074°02'55 5.2
2018-Apr-27 13:00N 39°48' W 074°03'3 5.7
2018-Apr-27 12:26N 39°45' W 074°04'3 5.5
2018-Apr-27 11:56N 39°42' W 074°05'3 5.6
2018-Apr-27 11:29N 39°39' W 074°06'3 5.0
2018-Apr-27 10:57N 39°37' W 074°07'60 3.7
2018-Apr-26 18:53N 39°07' W 075°14'3 7.4
2018-Apr-26 18:26N 39°10' W 075°16'2 4.0
2018-Apr-26 18:00N 39°12' W 075°17'3 5.8
2018-Apr-26 17:30N 39°14' W 075°20'2 5.0
2018-Apr-26 17:01N 39°16' W 075°22'4 6.9
2018-Apr-26 16:30N 39°19' W 075°24'3 6.4
2018-Apr-26 15:58N 39°22' W 075°27'3 7.5
2018-Apr-26 15:30N 39°24' W 075°30'3 5.7
2018-Apr-26 15:00N 39°26' W 075°32'2 4.6
2018-Apr-26 14:30N 39°28' W 075°34'  

Dump ship's entire track history